createdAt,value
2017-09-28T00:04:09.619Z,26.27
2017-09-28T00:06:35.899Z,27.60
2017-09-28T00:09:03.171Z,25.70
2017-09-28T00:11:32.540Z,26.27
2017-09-28T00:14:01.579Z,25.83
2017-09-28T00:16:27.839Z,25.17
2017-09-28T00:18:54.086Z,26.70
2017-09-28T00:21:21.376Z,24.97
2017-09-28T00:23:49.607Z,25.90
2017-09-28T00:26:15.838Z,25.60
2017-09-28T00:28:43.094Z,26.37
2017-09-28T00:31:09.351Z,25.93
2017-09-28T00:33:36.355Z,26.20
2017-09-28T00:36:04.819Z,25.33
2017-09-28T00:38:31.966Z,24.13
2017-09-28T00:40:59.307Z,24.63
2017-09-28T00:43:25.570Z,23.20
2017-09-28T00:45:51.808Z,24.47
2017-09-28T00:48:18.090Z,25.40
2017-09-28T00:50:44.365Z,25.47
2017-09-28T00:53:11.985Z,25.67
2017-09-28T00:55:38.227Z,25.40
2017-09-28T00:58:05.441Z,26.03
2017-09-28T01:00:31.699Z,25.10
2017-09-28T01:02:57.955Z,23.10
2017-09-28T01:05:24.235Z,25.87
2017-09-28T01:07:51.143Z,24.30
2017-09-28T01:10:19.640Z,25.37
2017-09-28T01:12:45.939Z,24.67
2017-09-28T01:15:12.999Z,24.23
2017-09-28T01:17:47.753Z,26.00
2017-09-28T01:20:19.809Z,26.10
2017-09-28T01:22:46.046Z,23.00
2017-09-28T01:25:12.299Z,24.83
2017-09-28T01:27:38.581Z,25.03
2017-09-28T01:30:04.823Z,25.83
2017-09-28T01:32:31.063Z,25.70
2017-09-28T01:34:57.374Z,25.23
2017-09-28T01:37:25.987Z,26.47
2017-09-28T01:39:52.234Z,23.90
2017-09-28T01:42:18.520Z,25.83
2017-09-28T01:44:44.758Z,22.00
2017-09-28T01:47:11.007Z,25.50
2017-09-28T01:49:38.003Z,25.90
2017-09-28T01:52:04.427Z,25.77
2017-09-28T01:54:30.703Z,24.40
2017-09-28T01:56:58.843Z,25.70
2017-09-28T01:59:25.194Z,25.07
2017-09-28T02:01:51.458Z,22.67
2017-09-28T02:04:17.766Z,24.80
2017-09-28T02:06:44.026Z,24.93
2017-09-28T02:09:10.275Z,25.80
2017-09-28T02:11:36.550Z,25.97
2017-09-28T02:14:02.801Z,24.77
2017-09-28T02:16:29.062Z,26.57
2017-09-28T02:21:28.390Z,24.23
2017-09-28T02:23:55.326Z,24.80
2017-09-28T02:26:21.567Z,27.03
2017-09-28T02:28:47.795Z,24.87
2017-09-28T02:31:14.046Z,24.33
2017-09-28T02:33:40.290Z,26.53
2017-09-28T02:36:06.550Z,25.40
2017-09-28T02:38:33.611Z,25.47
2017-09-28T02:40:59.858Z,25.10
2017-09-28T02:43:26.082Z,25.50
2017-09-28T02:45:54.145Z,25.00
2017-09-28T02:48:20.414Z,25.30
2017-09-28T02:50:46.653Z,25.00
2017-09-28T02:53:12.915Z,25.20
2017-09-28T02:55:39.157Z,25.60
2017-09-28T02:58:05.402Z,24.30
2017-09-28T03:00:32.583Z,25.07
2017-09-28T03:02:58.818Z,24.20
2017-09-28T03:05:25.054Z,24.77
2017-09-28T03:07:51.358Z,28.70
2017-09-28T03:10:17.595Z,26.10
2017-09-28T03:12:43.830Z,25.70
2017-09-28T03:15:10.096Z,26.83
2017-09-28T03:17:36.351Z,24.70
2017-09-28T03:20:03.349Z,25.80
2017-09-28T03:22:29.615Z,25.90
2017-09-28T03:24:55.862Z,24.43
2017-09-28T03:27:22.119Z,24.87
2017-09-28T03:29:48.384Z,25.90
2017-09-28T03:32:14.651Z,25.07
2017-09-28T03:34:41.664Z,26.20
2017-09-28T03:37:07.952Z,25.47
2017-09-28T03:39:34.202Z,24.10
2017-09-28T03:42:00.449Z,24.50
2017-09-28T03:44:26.699Z,26.03
2017-09-28T03:46:52.953Z,26.20
2017-09-28T03:49:19.954Z,25.73
2017-09-28T03:51:46.230Z,25.60
2017-09-28T03:54:12.487Z,25.03
2017-09-28T03:56:39.454Z,24.97
2017-09-28T03:59:05.729Z,23.70
2017-09-28T04:01:33.944Z,24.87
2017-09-28T04:04:00.191Z,25.73
2017-09-28T04:06:26.451Z,23.97
2017-09-28T04:08:52.689Z,24.23
2017-09-28T04:11:18.923Z,25.63
2017-09-28T04:13:45.186Z,25.00
2017-09-28T04:16:12.171Z,25.20
2017-09-28T04:18:38.438Z,25.60
2017-09-28T04:21:04.707Z,25.50
2017-09-28T04:23:30.959Z,24.67
2017-09-28T04:25:57.228Z,25.17
2017-09-28T04:28:23.623Z,24.47
2017-09-28T04:30:49.879Z,25.53
2017-09-28T04:33:16.142Z,29.00
2017-09-28T04:35:42.415Z,27.13
2017-09-28T04:38:08.703Z,26.80
2017-09-28T04:40:35.795Z,26.73
2017-09-28T04:43:02.102Z,25.20
2017-09-28T04:45:28.347Z,25.90
2017-09-28T04:47:55.291Z,25.67
2017-09-28T04:50:21.570Z,24.80
2017-09-28T04:52:47.806Z,26.67
2017-09-28T04:55:14.047Z,24.20
2017-09-28T04:57:40.344Z,24.60
2017-09-28T05:00:06.590Z,24.17
2017-09-28T05:02:32.990Z,27.23
2017-09-28T05:04:59.238Z,25.00
2017-09-28T05:07:25.510Z,26.40
2017-09-28T05:09:51.744Z,28.00
2017-09-28T05:12:18.018Z,25.67
2017-09-28T05:14:44.270Z,27.80
2017-09-28T05:17:10.502Z,28.27
2017-09-28T05:19:36.759Z,24.57
2017-09-28T05:22:03.035Z,26.77
2017-09-28T05:24:30.025Z,27.00
2017-09-28T05:26:56.481Z,29.47
2017-09-28T05:29:22.739Z,28.00
2017-09-28T05:31:49.080Z,26.63
2017-09-28T05:34:15.531Z,26.40
2017-09-28T05:36:42.575Z,24.23
2017-09-28T05:39:08.851Z,25.30
2017-09-28T05:41:35.142Z,25.17
2017-09-28T05:44:01.415Z,25.43
2017-09-28T05:46:27.682Z,28.73
2017-09-28T05:48:53.985Z,24.27
2017-09-28T05:51:20.250Z,26.73
2017-09-28T05:53:46.482Z,25.90
2017-09-28T05:56:12.781Z,27.00
2017-09-28T05:58:39.035Z,25.43
2017-09-28T06:01:05.287Z,28.37
2017-09-28T06:03:31.654Z,24.63
2017-09-28T06:05:57.919Z,28.00
2017-09-28T06:08:24.171Z,26.50
2017-09-28T06:10:50.450Z,25.50
2017-09-28T06:13:16.694Z,27.07
2017-09-28T06:15:42.939Z,25.17
2017-09-28T06:18:09.234Z,27.87
2017-09-28T06:20:35.481Z,27.70
2017-09-28T06:23:01.728Z,27.80
2017-09-28T06:25:28.027Z,29.17
2017-09-28T06:27:54.274Z,27.70
2017-09-28T06:30:20.522Z,28.87
2017-09-28T06:32:46.783Z,28.67
2017-09-28T06:35:13.059Z,28.20
2017-09-28T06:37:39.298Z,28.80
2017-09-28T06:40:06.576Z,30.40
2017-09-28T06:42:32.807Z,31.23
2017-09-28T06:44:59.071Z,28.87
2017-09-28T06:47:25.354Z,28.53
2017-09-28T06:49:51.605Z,30.40
2017-09-28T06:52:17.907Z,28.90
2017-09-28T06:54:44.192Z,29.37
2017-09-28T06:57:10.462Z,28.77
2017-09-28T06:59:36.690Z,31.07
2017-09-28T07:02:02.989Z,31.47
2017-09-28T07:04:29.367Z,30.23
2017-09-28T07:06:55.599Z,30.23
2017-09-28T07:09:21.894Z,31.07
2017-09-28T07:11:48.135Z,30.13
2017-09-28T07:14:14.366Z,33.80
2017-09-28T07:16:41.476Z,33.60
2017-09-28T07:19:07.751Z,32.20
2017-09-28T07:21:33.999Z,31.67
2017-09-28T07:24:00.259Z,31.53
2017-09-28T07:26:26.503Z,30.77
2017-09-28T07:28:53.522Z,32.43
2017-09-28T07:31:19.805Z,30.77
2017-09-28T07:33:46.063Z,33.27
2017-09-28T07:36:12.314Z,30.67
2017-09-28T07:38:38.595Z,30.43
2017-09-28T07:41:04.847Z,31.63
2017-09-28T07:43:31.096Z,31.37
2017-09-28T07:45:57.362Z,33.00
2017-09-28T07:48:23.625Z,35.70
2017-09-28T07:50:49.856Z,34.70
2017-09-28T07:53:16.134Z,35.20
2017-09-28T07:55:42.364Z,30.70
2017-09-28T07:58:08.601Z,31.10
2017-09-28T08:00:34.856Z,31.93
2017-09-28T08:03:01.128Z,33.60
2017-09-28T08:05:27.623Z,31.33
2017-09-28T08:07:53.882Z,29.97
2017-09-28T08:10:20.123Z,33.13
2017-09-28T08:12:46.353Z,32.90
2017-09-28T08:15:12.626Z,31.50
2017-09-28T08:17:38.870Z,31.40
2017-09-28T08:20:05.098Z,31.67
2017-09-28T08:22:31.362Z,33.30
2017-09-28T08:24:57.674Z,31.90
2017-09-28T08:27:23.910Z,35.83
2017-09-28T08:29:59.167Z,34.17
2017-09-28T08:32:25.447Z,34.80
2017-09-28T08:34:51.682Z,34.00
2017-09-28T08:37:17.938Z,35.80
2017-09-28T08:39:44.236Z,34.97
2017-09-28T08:42:10.491Z,36.27
2017-09-28T08:44:36.822Z,35.70
2017-09-28T08:47:10.011Z,35.90
2017-09-28T08:49:36.286Z,34.17
2017-09-28T08:52:02.578Z,37.57
2017-09-28T08:54:28.851Z,36.17
2017-09-28T08:56:55.117Z,37.50
2017-09-28T08:59:21.384Z,34.73
2017-09-28T09:01:47.685Z,38.00
2017-09-28T09:04:13.987Z,35.97
2017-09-28T09:06:40.339Z,37.90
2017-09-28T09:09:06.622Z,38.47
2017-09-28T09:11:32.874Z,38.90
2017-09-28T09:13:59.158Z,36.37
2017-09-28T09:16:25.381Z,37.80
2017-09-28T09:18:51.625Z,36.27
2017-09-28T09:21:17.909Z,39.93
2017-09-28T09:23:44.150Z,39.10
2017-09-28T09:26:10.990Z,37.37
2017-09-28T09:28:37.231Z,40.10
2017-09-28T09:31:04.216Z,36.40
2017-09-28T09:33:30.453Z,36.13
2017-09-28T09:35:56.718Z,37.47
2017-09-28T09:38:22.945Z,38.87
2017-09-28T09:40:49.194Z,38.67
2017-09-28T09:43:15.466Z,38.73
2017-09-28T09:45:41.718Z,40.17
2017-09-28T09:48:07.958Z,39.13
2017-09-28T09:50:34.238Z,37.00
2017-09-28T09:53:01.212Z,39.67
2017-09-28T09:55:27.602Z,37.17
2017-09-28T09:57:53.861Z,39.07
2017-09-28T10:00:20.107Z,38.70
2017-09-28T10:02:46.342Z,38.43
2017-09-28T10:05:12.593Z,43.90
2017-09-28T10:07:44.682Z,44.90
2017-09-28T10:10:15.952Z,42.30
2017-09-28T10:12:43.967Z,41.90
2017-09-28T10:15:15.790Z,38.07
2017-09-28T10:17:42.054Z,40.93
2017-09-28T10:20:08.322Z,38.70
2017-09-28T10:22:34.649Z,42.60
2017-09-28T10:25:00.899Z,41.50
2017-09-28T10:27:27.142Z,41.80
2017-09-28T10:29:53.409Z,43.83
2017-09-28T10:32:19.642Z,41.00
2017-09-28T10:34:45.875Z,41.63
2017-09-28T10:37:12.150Z,43.43
2017-09-28T10:39:38.585Z,43.40
2017-09-28T10:42:05.762Z,39.63
2017-09-28T10:44:32.751Z,40.00
2017-09-28T10:46:59.019Z,42.87
2017-09-28T10:49:25.270Z,45.40
2017-09-28T10:51:52.270Z,42.13
2017-09-28T10:54:18.522Z,39.33
2017-09-28T10:56:44.773Z,43.93
2017-09-28T10:59:11.056Z,41.33
2017-09-28T11:01:37.306Z,46.20
2017-09-28T11:04:03.557Z,47.23
2017-09-28T11:06:29.842Z,43.20
2017-09-28T11:08:56.134Z,42.90
2017-09-28T11:11:22.370Z,43.20
2017-09-28T11:13:48.615Z,41.10
2017-09-28T11:16:14.890Z,42.37
2017-09-28T11:18:41.150Z,42.47
2017-09-28T11:21:07.402Z,43.50
2017-09-28T11:23:34.405Z,42.53
2017-09-28T11:26:00.671Z,45.47
2017-09-28T11:28:26.932Z,42.23
2017-09-28T11:30:54.728Z,41.77
2017-09-28T11:33:20.958Z,44.80
2017-09-28T11:35:47.234Z,42.30
2017-09-28T11:38:13.465Z,42.13
2017-09-28T11:40:39.719Z,40.77
2017-09-28T11:43:05.987Z,41.00
2017-09-28T11:45:33.169Z,40.90
2017-09-28T11:47:59.438Z,41.57
2017-09-28T11:50:26.102Z,42.20
2017-09-28T11:52:52.338Z,41.17
2017-09-28T11:55:18.582Z,41.70
2017-09-28T11:57:45.047Z,43.17
2017-09-28T12:00:11.350Z,43.97
2017-09-28T12:02:37.599Z,41.97
2017-09-28T12:05:03.875Z,43.53
2017-09-28T12:07:30.105Z,40.27
2017-09-28T12:09:57.369Z,44.10
2017-09-28T12:12:23.637Z,42.70
2017-09-28T12:14:49.871Z,41.83
2017-09-28T12:17:16.114Z,40.30
2017-09-28T12:19:42.388Z,41.97
2017-09-28T12:22:08.618Z,45.20
2017-09-28T12:24:34.851Z,42.60
2017-09-28T12:27:01.168Z,40.30
2017-09-28T12:29:27.418Z,44.43
2017-09-28T12:31:53.954Z,40.60
2017-09-28T12:34:20.283Z,43.60
2017-09-28T12:36:47.242Z,44.73
2017-09-28T12:39:14.143Z,43.33
2017-09-28T12:41:40.434Z,47.50
2017-09-28T12:44:06.671Z,42.80
2017-09-28T12:46:33.410Z,42.13
2017-09-28T12:48:59.726Z,45.23
2017-09-28T12:51:25.986Z,44.17
2017-09-28T12:53:52.234Z,45.03
2017-09-28T12:56:18.587Z,46.90
2017-09-28T12:58:44.827Z,49.07
2017-09-28T13:01:11.079Z,44.80
2017-09-28T13:03:38.331Z,49.60
2017-09-28T13:06:04.564Z,45.10
2017-09-28T13:08:30.910Z,48.80
2017-09-28T13:10:58.135Z,46.03
2017-09-28T13:13:25.262Z,46.60
2017-09-28T13:15:51.490Z,48.17
2017-09-28T13:18:17.774Z,45.00
2017-09-28T13:20:44.024Z,50.43
2017-09-28T13:23:10.251Z,51.30
2017-09-28T13:25:36.535Z,48.50
2017-09-28T13:28:02.770Z,49.07
2017-09-28T13:30:29.012Z,47.30
2017-09-28T13:32:55.449Z,49.37
2017-09-28T13:35:21.910Z,47.67
2017-09-28T13:37:48.138Z,49.53
2017-09-28T13:40:14.426Z,52.27
2017-09-28T13:42:41.095Z,55.30
2017-09-28T13:45:08.248Z,53.27
2017-09-28T13:47:34.529Z,51.07
2017-09-28T13:50:00.774Z,51.03
2017-09-28T13:52:27.167Z,52.20
2017-09-28T13:54:53.414Z,49.50
2017-09-28T13:57:19.650Z,54.40
2017-09-28T13:59:45.894Z,53.13
2017-09-28T14:02:12.719Z,54.43
2017-09-28T14:04:38.951Z,50.73
2017-09-28T14:07:05.187Z,51.77
2017-09-28T14:09:32.351Z,55.20
2017-09-28T14:11:58.674Z,57.13
2017-09-28T14:14:24.922Z,48.40
2017-09-28T14:16:51.182Z,49.40
2017-09-28T14:19:18.143Z,52.77
2017-09-28T14:21:44.394Z,55.53
2017-09-28T14:24:10.714Z,54.30
2017-09-28T14:26:36.946Z,51.50
2017-09-28T14:29:03.198Z,57.90
2017-09-28T14:31:29.458Z,54.83
2017-09-28T14:33:55.694Z,55.90
2017-09-28T14:36:21.960Z,53.10
2017-09-28T14:38:48.235Z,56.63
2017-09-28T14:41:14.462Z,54.33
2017-09-28T14:43:40.710Z,54.33
2017-09-28T14:46:07.158Z,56.97
2017-09-28T14:48:33.386Z,55.00
2017-09-28T14:50:59.618Z,56.47
2017-09-28T14:53:26.638Z,55.17
2017-09-28T14:55:52.862Z,63.23
2017-09-28T14:58:19.109Z,60.70
2017-09-28T15:00:45.921Z,55.77
2017-09-28T15:03:12.147Z,57.30
2017-09-28T15:05:38.406Z,56.10
2017-09-28T15:08:07.762Z,58.97
2017-09-28T15:10:35.851Z,59.13
2017-09-28T15:13:02.468Z,58.57
2017-09-28T15:15:30.573Z,54.60
2017-09-28T15:17:57.818Z,54.60
2017-09-28T15:20:24.274Z,51.83
2017-09-28T15:22:50.715Z,58.43
2017-09-28T15:25:18.778Z,55.67
2017-09-28T15:27:46.051Z,57.63
2017-09-28T15:30:13.509Z,58.07
2017-09-28T15:32:39.895Z,57.50
2017-09-28T15:35:06.298Z,56.40
2017-09-28T15:37:33.634Z,53.53
2017-09-28T15:40:01.145Z,59.40
2017-09-28T15:42:30.296Z,58.33
2017-09-28T15:44:56.595Z,58.57
2017-09-28T15:47:22.854Z,57.40
2017-09-28T15:49:49.081Z,56.60
2017-09-28T15:52:15.342Z,55.80
2017-09-28T15:54:41.597Z,54.80
2017-09-28T15:57:08.673Z,55.10
2017-09-28T15:59:35.094Z,57.13
2017-09-28T16:02:01.451Z,55.13
2017-09-28T16:04:28.107Z,58.80
2017-09-28T16:06:54.536Z,56.33
2017-09-28T16:09:20.927Z,56.87
2017-09-28T16:11:47.312Z,57.10
2017-09-28T16:14:13.862Z,56.47
2017-09-28T16:16:40.268Z,58.90
2017-09-28T16:19:13.507Z,58.97
2017-09-28T16:21:39.742Z,58.47
2017-09-28T16:24:06.012Z,58.77
2017-09-28T16:26:32.270Z,68.77
2017-09-28T16:28:58.505Z,58.00
2017-09-28T16:31:24.810Z,61.97
2017-09-28T16:33:51.154Z,58.57
2017-09-28T16:36:17.387Z,61.73
2017-09-28T16:38:43.692Z,58.67
2017-09-28T16:41:10.075Z,60.50
2017-09-28T16:43:36.318Z,59.17
2017-09-28T16:46:02.568Z,59.40
2017-09-28T16:48:29.923Z,57.43
2017-09-28T16:50:56.158Z,58.73
2017-09-28T16:53:23.250Z,57.77
2017-09-28T16:55:49.550Z,56.70
2017-09-28T16:58:15.790Z,58.37
2017-09-28T17:00:42.037Z,60.03
2017-09-28T17:03:08.279Z,58.70
2017-09-28T17:05:34.506Z,56.47
2017-09-28T17:08:00.759Z,60.07
2017-09-28T17:10:27.212Z,57.53
2017-09-28T17:12:53.458Z,56.67
2017-09-28T17:15:19.767Z,57.53
2017-09-28T17:17:46.098Z,55.80
2017-09-28T17:20:12.347Z,55.60
2017-09-28T17:22:38.623Z,56.20
2017-09-28T17:25:05.662Z,57.10
2017-09-28T17:27:32.658Z,63.37
2017-09-28T17:29:59.645Z,59.20
2017-09-28T17:32:25.911Z,55.20
2017-09-28T17:34:52.139Z,56.50
2017-09-28T17:37:18.382Z,55.97
2017-09-28T17:39:44.638Z,60.27
2017-09-28T17:42:11.854Z,57.80
2017-09-28T17:44:38.104Z,57.17
2017-09-28T17:47:04.412Z,58.00
2017-09-28T17:49:30.643Z,57.60
2017-09-28T17:51:56.897Z,59.47
2017-09-28T17:54:23.218Z,57.90
2017-09-28T17:56:49.563Z,59.10
2017-09-28T17:59:15.796Z,61.30
2017-09-28T18:01:42.090Z,62.47
2017-09-28T18:04:08.343Z,62.00
2017-09-28T18:06:36.176Z,63.73
2017-09-28T18:09:02.454Z,58.47
2017-09-28T18:11:28.922Z,60.80
2017-09-28T18:13:55.875Z,60.20
2017-09-28T18:16:22.362Z,56.90
2017-09-28T18:18:48.682Z,58.67
2017-09-28T18:21:14.960Z,60.50
2017-09-28T18:23:41.309Z,56.27
2017-09-28T18:26:07.649Z,62.27
2017-09-28T18:28:33.970Z,59.07
2017-09-28T18:31:00.402Z,58.00
2017-09-28T18:33:26.715Z,60.73
2017-09-28T18:35:53.079Z,61.27
2017-09-28T18:38:19.390Z,63.70
2017-09-28T18:40:45.708Z,62.87
2017-09-28T18:43:12.047Z,63.57
2017-09-28T18:45:39.178Z,59.80
2017-09-28T18:48:05.495Z,64.90
2017-09-28T18:50:32.566Z,61.93
2017-09-28T18:52:58.913Z,59.13
2017-09-28T18:55:25.377Z,57.97
2017-09-28T18:57:52.161Z,64.37
2017-09-28T19:00:18.520Z,64.47
2017-09-28T19:02:44.902Z,59.67
2017-09-28T19:05:12.000Z,62.90
2017-09-28T19:07:38.548Z,71.37
2017-09-28T19:10:05.638Z,65.27
2017-09-28T19:12:32.158Z,61.40
2017-09-28T19:14:59.234Z,60.37
2017-09-28T19:17:25.665Z,58.50
2017-09-28T19:19:51.945Z,61.87
2017-09-28T19:22:18.248Z,58.67
2017-09-28T19:24:45.294Z,62.43
2017-09-28T19:27:11.661Z,84.93
2017-09-28T19:29:38.024Z,90.97
2017-09-28T19:32:05.351Z,88.23
2017-09-28T19:34:31.702Z,84.40
2017-09-28T19:36:57.970Z,77.50
2017-09-28T19:39:25.119Z,70.87
2017-09-28T19:41:51.439Z,62.87
2017-09-28T19:44:17.796Z,59.80
2017-09-28T19:46:44.115Z,59.77
2017-09-28T19:49:10.461Z,63.17
2017-09-28T19:51:37.578Z,61.40
2017-09-28T19:54:03.937Z,69.97
2017-09-28T19:56:31.178Z,77.50
2017-09-28T19:58:58.257Z,67.73
2017-09-28T20:01:24.575Z,64.83
2017-09-28T20:03:50.926Z,63.70
2017-09-28T20:06:17.981Z,65.53
2017-09-28T20:08:44.275Z,65.23
2017-09-28T20:11:10.581Z,67.73
2017-09-28T20:13:36.901Z,63.73
2017-09-28T20:16:03.146Z,63.67
2017-09-28T20:18:29.548Z,64.90
2017-09-28T20:20:56.576Z,64.97
2017-09-28T20:23:22.912Z,66.70
2017-09-28T20:25:49.191Z,65.30
2017-09-28T20:28:15.510Z,65.27
2017-09-28T20:30:41.771Z,63.57
2017-09-28T20:33:15.247Z,63.90
2017-09-28T20:35:41.610Z,63.77
2017-09-28T20:38:07.926Z,61.47
2017-09-28T20:40:35.335Z,69.20
2017-09-28T20:43:01.714Z,71.80
2017-09-28T20:45:27.960Z,70.60
2017-09-28T20:47:54.302Z,69.10
2017-09-28T20:50:21.558Z,70.00
2017-09-28T20:52:47.795Z,62.83
2017-09-28T20:55:14.050Z,64.10
2017-09-28T20:57:40.487Z,63.97
2017-09-28T21:00:06.710Z,69.10
2017-09-28T21:02:33.195Z,68.37
2017-09-28T21:04:59.528Z,62.30
2017-09-28T21:07:25.786Z,71.23
2017-09-28T21:09:52.027Z,67.03
2017-09-28T21:12:18.396Z,66.73
2017-09-28T21:14:45.337Z,64.97
2017-09-28T21:17:11.582Z,68.40
2017-09-28T21:19:38.222Z,67.00
2017-09-28T21:22:05.203Z,67.77
2017-09-28T21:24:31.456Z,63.30
2017-09-28T21:26:57.855Z,64.50
2017-09-28T21:29:25.843Z,62.40
2017-09-28T21:31:52.081Z,60.30
2017-09-28T21:34:18.378Z,62.50
2017-09-28T21:36:45.346Z,64.50
2017-09-28T21:39:11.593Z,64.70
2017-09-28T21:41:38.845Z,64.30
2017-09-28T21:44:05.106Z,61.00
2017-09-28T21:46:31.430Z,58.63
2017-09-28T21:48:57.766Z,61.30
2017-09-28T21:51:24.019Z,59.50
2017-09-28T21:53:50.290Z,62.87
2017-09-28T21:56:16.570Z,56.07
2017-09-28T21:58:42.830Z,63.80
2017-09-28T22:01:09.822Z,63.60
2017-09-28T22:03:43.079Z,58.70
2017-09-28T22:06:10.090Z,57.20
2017-09-28T22:08:36.334Z,54.73
2017-09-28T22:11:02.666Z,56.40
2017-09-28T22:13:29.026Z,51.63
2017-09-28T22:15:56.402Z,56.20
2017-09-28T22:18:22.830Z,49.40
2017-09-28T22:20:49.202Z,52.90
2017-09-28T22:23:15.443Z,53.50
2017-09-28T22:25:41.720Z,52.53
2017-09-28T22:28:07.968Z,50.83
2017-09-28T22:30:35.202Z,48.90
2017-09-28T22:33:01.523Z,48.03
2017-09-28T22:35:27.834Z,49.00
2017-09-28T22:37:54.070Z,50.30
2017-09-28T22:40:21.827Z,47.43
2017-09-28T22:42:48.197Z,49.07
2017-09-28T22:45:14.564Z,45.67
2017-09-28T22:47:40.931Z,47.50
2017-09-28T22:50:07.300Z,43.23
2017-09-28T22:52:33.648Z,48.53
2017-09-28T22:55:00.030Z,47.50
2017-09-28T22:57:26.352Z,46.73
2017-09-28T22:59:52.682Z,45.00
2017-09-28T23:02:18.926Z,45.63
2017-09-28T23:04:45.162Z,42.40
2017-09-28T23:07:11.435Z,42.63
2017-09-28T23:09:38.434Z,43.10
2017-09-28T23:12:04.721Z,39.80
2017-09-28T23:14:31.474Z,43.10
2017-09-28T23:16:57.838Z,41.60
2017-09-28T23:19:24.098Z,43.30
2017-09-28T23:21:51.186Z,42.23
2017-09-28T23:24:17.430Z,41.13
2017-09-28T23:26:43.662Z,40.70
2017-09-28T23:29:09.907Z,40.00
2017-09-28T23:31:36.178Z,40.57
2017-09-28T23:34:02.487Z,41.77
2017-09-28T23:36:28.731Z,40.97
2017-09-28T23:38:55.011Z,41.00
2017-09-28T23:41:21.251Z,42.03
2017-09-28T23:43:47.568Z,42.30
2017-09-28T23:46:13.832Z,39.90
2017-09-28T23:48:41.994Z,42.00
2017-09-28T23:51:08.233Z,41.80
2017-09-28T23:53:34.507Z,41.67
2017-09-28T23:56:01.666Z,40.60
2017-09-28T23:58:27.927Z,40.27
